Terminal Aerodrome Forecast
Issued by NWS

Home | Current Version | Previous Version | Text Only | Print | Product List | Glossary On
Versions: 1 2 3 4 5 6 7 8 9 10 11 12 13 14 15 16 17 18
000
FTUS41 KGYX 202336
TAFHIE
TAF
KHIE 202336Z 2100/2124 VRB03KT P6SM SCT200
     FM210700 00000KT 1SM BR BKN002
     FM211130 VRB03KT P6SM SCT200
     FM211700 28008KT P6SM SCT050=

USA.gov is the U.S. government's official web portal to all federal, state and local government web resources and services.